»·PEaware :: N801DB KSMX-KSAN

N801DB :: KSMX-KSAN

FLIGHT INFORMATION

Flight Status: Arrived
Operator: Privately registered:
United States
More flights under this callsign
Pilot: Ryan B. (8502)
Aircraft: BOEING 757-200
(B752)
More flights by this aircraft type
Origin: KSMX Santa Maria Pub/Capt Hancock
United States
Destination: KSAN San Diego Intl-Lindbergh
United States
More flights between these airports :: More routes between these airports
Route: +RZS VTU V208 SXC V208 LAX118 CARDI MZB320 MZB
File this flight plan on PilotEdge
Remarks:
Altitude:
(Current/Filed)
11,000ft
Speed:
(Current/Filed)
409kts
Departed: 17-Aug-17 09:47 AM
Arrived: 17-Aug-17 10:33 AM
Distance/Time
Traveled:
208nm/0:46
Distance/Time
To Go:
Arrived

Flight Plot

Page will automatically refresh every two minutes.


Map Options




Map Legend


Flown Route
Filed Route
Departure Airport
Arrival Airport
Navaid (VOR, NDB)
Fix

Horizontal Profiles

Position Reports

Time Latitude Longitude Heading Altitude Ground
Speed
17-Aug-17 09:27 34.896790 -120.445724 273 273ft 0kts
17-Aug-17 09:28 34.896790 -120.445724 273 273ft 0kts
17-Aug-17 09:29 34.896790 -120.445724 273 273ft 0kts
17-Aug-17 09:30 34.896790 -120.445724 273 273ft 0kts
17-Aug-17 09:31 34.896790 -120.445724 273 273ft 0kts
17-Aug-17 09:32 34.896790 -120.445724 273 273ft 0kts
17-Aug-17 09:33 34.896790 -120.445724 273 273ft 0kts
17-Aug-17 09:34 34.896790 -120.445724 273 273ft 0kts
17-Aug-17 09:35 34.896790 -120.445724 273 273ft 0kts
17-Aug-17 09:36 34.896790 -120.445724 273 273ft 0kts
17-Aug-17 09:37 34.896790 -120.445724 273 273ft 0kts
17-Aug-17 09:38 34.896790 -120.445724 273 273ft 0kts
17-Aug-17 09:39 34.896790 -120.445724 273 273ft 0kts
17-Aug-17 09:40 34.896790 -120.445724 273 273ft 0kts
17-Aug-17 09:41 34.896790 -120.445724 273 273ft 0kts
17-Aug-17 09:42 34.896790 -120.445724 273 273ft 0kts
17-Aug-17 09:43 34.896790 -120.445724 273 273ft 0kts
17-Aug-17 09:44 34.896790 -120.445724 273 273ft 0kts
17-Aug-17 09:45 34.896790 -120.445724 273 273ft 0kts
17-Aug-17 09:46 34.896791 -120.445725 274 273ft 0kts
17-Aug-17 09:47 34.896790 -120.445725 273 273ft 0kts
17-Aug-17 09:48 34.896790 -120.445725 273 273ft 0kts
17-Aug-17 09:49 34.896582 -120.446229 209 273ft 7kts
17-Aug-17 09:50 34.893293 -120.445376 180 272ft 15kts
17-Aug-17 09:51 34.896636 -120.450363 315 273ft 121kts
17-Aug-17 09:52 34.929811 -120.448998 89 3657ft 178kts
17-Aug-17 09:53 34.908524 -120.383668 112 5160ft 260kts
17-Aug-17 09:54 34.864287 -120.306918 127 8114ft 289kts
17-Aug-17 09:55 34.814913 -120.232768 125 8111ft 281kts
17-Aug-17 09:56 34.765686 -120.158378 130 8119ft 282kts
17-Aug-17 09:57 34.717210 -120.087134 130 8111ft 271kts
17-Aug-17 09:58 34.664575 -120.017447 133 10521ft 301kts
17-Aug-17 09:59 34.597275 -119.932745 132 11027ft 370kts
17-Aug-17 10:00 34.525630 -119.842654 132 11006ft 372kts
17-Aug-17 10:01 34.453941 -119.752685 132 10999ft 372kts
17-Aug-17 10:02 34.381906 -119.662571 132 10998ft 372kts
17-Aug-17 10:03 34.309800 -119.572593 132 10998ft 373kts
17-Aug-17 10:04 34.237440 -119.482525 132 10998ft 375kts
17-Aug-17 10:05 34.164857 -119.392382 132 11006ft 372kts
17-Aug-17 10:06 34.093960 -119.301937 131 11010ft 372kts
17-Aug-17 10:07 34.022177 -119.211508 132 11010ft 379kts
17-Aug-17 10:08 33.948839 -119.120906 132 11009ft 377kts
17-Aug-17 10:09 33.875679 -119.031015 132 11009ft 378kts
17-Aug-17 10:10 33.802128 -118.940045 132 11008ft 380kts
17-Aug-17 10:11 33.728615 -118.849886 133 11011ft 377kts
17-Aug-17 10:12 33.654546 -118.759626 132 11024ft 382kts
17-Aug-17 10:13 33.579957 -118.668937 133 11035ft 381kts
17-Aug-17 10:14 33.507674 -118.581300 133 11035ft 381kts
17-Aug-17 10:15 33.432632 -118.491575 133 11035ft 381kts
17-Aug-17 10:16 33.367197 -118.394222 106 11036ft 377kts
17-Aug-17 10:17 33.342688 -118.274805 99 11033ft 377kts
17-Aug-17 10:18 33.324070 -118.153620 99 11022ft 360kts
17-Aug-17 10:19 33.306190 -118.036028 99 11028ft 360kts
17-Aug-17 10:20 33.288491 -117.918363 99 11014ft 360kts
17-Aug-17 10:21 33.276244 -117.799995 94 11001ft 359kts
17-Aug-17 10:22 33.266174 -117.681677 95 11000ft 358kts
17-Aug-17 10:23 33.246654 -117.566023 120 10995ft 360kts
17-Aug-17 10:24 33.178785 -117.477188 131 10993ft 353kts
17-Aug-17 10:25 33.112126 -117.410005 152 10746ft 286kts
17-Aug-17 10:26 33.041314 -117.369771 154 9450ft 281kts
17-Aug-17 10:27 32.971131 -117.330756 155 8076ft 280kts
17-Aug-17 10:28 32.904676 -117.293922 155 7003ft 252kts
17-Aug-17 10:29 32.851094 -117.257608 116 7000ft 204kts
17-Aug-17 10:30 32.839331 -117.191783 101 7020ft 203kts
17-Aug-17 10:31 32.828395 -117.125990 101 7023ft 202kts
17-Aug-17 10:32 32.815715 -117.061381 125 6920ft 191kts
17-Aug-17 10:33 32.767407 -117.051293 181 5281ft 185kts
17-Aug-17 10:34 32.721031 -117.067938 228 3953ft 167kts
17-Aug-17 10:35 32.712351 -117.118969 277 2189ft 159kts
17-Aug-17 10:36 32.726425 -117.161479 289 805ft 123kts
17-Aug-17 10:37 32.734277 -117.192678 286 25ft 21kts
17-Aug-17 10:38 32.733523 -117.193730 106 25ft 12kts
17-Aug-17 10:39 32.734768 -117.189947 102 25ft 14kts

Navigation Log

Ident Type
1. KSMX Airport
2. RZS Navaid
3. VTU Navaid
4. WEEZL Fix
5. SXC Navaid
6. CARDI Fix
7. MZB Navaid
8. KSAN Airport